This is the latest recevied weather packets stored in our database for station/object W4MJZ-1. If no packets are shown the sender has not sent any weather packets the latest 1 day(s).
| Time | Temp. | Humidity | Pressure | Rain* | Wind** | Luminosity | Snow |
|---|---|---|---|---|---|---|---|
| 1778096240 | 24.44° C | 23% | 1022.9 hPa | 0 mm | - | - | - |
| 1778095640 | 24.44° C | 24% | 1022.9 hPa | 0 mm | - | - | - |
| 1778094739 | 23.33° C | 26% | 1023.3 hPa | 0 mm | - | - | - |
| 1778094681 | 22.78° C | 28% | 1023.3 hPa | 0 mm | - | - | - |
| 1778094439 | 22.78° C | 28% | 1023.3 hPa | 0 mm | - | - | - |
| 1778094406 | 23.33° C | 28% | 1023.3 hPa | 0 mm | - | - | - |
| 1778093840 | 22.22° C | 29% | 1023.3 hPa | 0 mm | - | - | - |
| 1778093539 | 23.33° C | 29% | 1023.3 hPa | 0 mm | - | - | - |
| 1778092943 | 22.78° C | 29% | 1023.3 hPa | 0 mm | - | - | - |
| 1778092449 | 22.78° C | 32% | 1023.3 hPa | 0 mm | - | - | - |
| 1778092182 | 22.22° C | 31% | 1023.7 hPa | 0 mm | - | - | - |
| 1778091654 | 23.33° C | 29% | 1023.3 hPa | 0 mm | - | - | - |
| 1778090539 | 22.22° C | 33% | 1023.3 hPa | 0 mm | - | - | - |
| 1778089511 | 21.67° C | 34% | 1023.7 hPa | 0 mm | - | - | - |
| 1778089181 | 22.22° C | 34% | 1023.3 hPa | 0 mm | - | - | - |
| 1778088878 | 22.22° C | 33% | 1023.3 hPa | 0 mm | - | - | - |
| 1778086938 | 20.56° C | 37% | 1023.3 hPa | 0 mm | - | - | - |
| 1778086759 | 20° C | 39% | 1023.7 hPa | 0 mm | - | - | - |
| 1778086339 | 19.44° C | 41% | 1023.3 hPa | 0 mm | - | - | - |
| 1778085291 | 18.89° C | 43% | 1023.7 hPa | 0 mm | - | - | - |
| 1778084840 | 18.89° C | 43% | 1023.3 hPa | 0 mm | - | - | - |
| 1778083940 | 18.89° C | 44% | 1023.3 hPa | 0 mm | - | - | - |
| 1778083909 | 18.89° C | 43% | 1023.3 hPa | 0 mm | - | - | - |
| 1778082962 | 18.89° C | 43% | 1023.3 hPa | 0 mm | - | - | - |
| 1778082140 | 18.33° C | 43% | 1023.3 hPa | 0 mm | - | - | - |
* Rain latest hour (hover to see other rain measurements)
** Current wind speed in m/s (hover to see current wind gust speed)